createdAt,value
2022-07-30T00:02:12.010Z,19.80
2022-07-30T00:04:40.066Z,19.80
2022-07-30T00:07:08.342Z,19.80
2022-07-30T00:09:36.416Z,19.70
2022-07-30T00:12:04.979Z,19.70
2022-07-30T00:14:34.818Z,19.70
2022-07-30T00:17:03.805Z,19.60
2022-07-30T00:19:33.625Z,19.60
2022-07-30T00:22:01.671Z,19.60
2022-07-30T00:24:29.668Z,19.60
2022-07-30T00:26:57.867Z,19.60
2022-07-30T00:29:26.606Z,19.60
2022-07-30T00:31:54.582Z,19.50
2022-07-30T00:34:22.652Z,19.50
2022-07-30T00:36:51.967Z,19.50
2022-07-30T00:39:20.013Z,19.50
2022-07-30T00:41:55.787Z,19.50
2022-07-30T00:44:24.008Z,19.50
2022-07-30T00:46:52.180Z,19.40
2022-07-30T00:49:20.719Z,19.40
2022-07-30T00:51:48.914Z,19.40
2022-07-30T00:54:18.450Z,19.40
2022-07-30T00:56:48.033Z,19.30
2022-07-30T00:59:16.538Z,19.30
2022-07-30T01:01:44.740Z,19.30
2022-07-30T01:04:12.811Z,19.20
2022-07-30T01:06:41.323Z,19.20
2022-07-30T01:09:09.543Z,19.20
2022-07-30T01:11:41.164Z,19.10
2022-07-30T01:14:10.351Z,19.10
2022-07-30T01:16:41.708Z,19.10
2022-07-30T01:19:34.347Z,19.10
2022-07-30T01:22:12.442Z,19.10
2022-07-30T01:24:44.926Z,19.10
2022-07-30T01:27:19.622Z,19.00
2022-07-30T01:29:49.235Z,19.00
2022-07-30T01:32:18.800Z,19.00
2022-07-30T01:34:47.869Z,19.00
2022-07-30T01:37:17.908Z,18.90
2022-07-30T01:39:49.644Z,18.90
2022-07-30T01:42:20.590Z,18.90
2022-07-30T01:44:50.939Z,18.90
2022-07-30T01:47:21.255Z,18.90
2022-07-30T01:49:51.643Z,18.80
2022-07-30T01:52:20.727Z,18.80
2022-07-30T01:54:53.490Z,18.80
2022-07-30T01:57:24.208Z,18.70
2022-07-30T01:59:55.983Z,18.70
2022-07-30T02:02:24.027Z,18.60
2022-07-30T02:04:52.202Z,18.60
2022-07-30T02:07:25.462Z,18.60
2022-07-30T02:09:56.619Z,18.60
2022-07-30T02:12:30.054Z,18.60
2022-07-30T02:15:05.292Z,18.60
2022-07-30T02:17:44.913Z,18.50
2022-07-30T02:20:15.466Z,18.50
2022-07-30T02:22:47.241Z,18.40
2022-07-30T02:25:19.588Z,18.40
2022-07-30T02:27:53.039Z,18.40
2022-07-30T02:30:22.196Z,18.40
2022-07-30T02:32:52.224Z,18.30
2022-07-30T02:35:23.807Z,18.40
2022-07-30T02:37:54.064Z,18.40
2022-07-30T02:40:23.278Z,18.30
2022-07-30T02:42:54.693Z,18.30
2022-07-30T02:45:25.354Z,18.30
2022-07-30T02:47:57.135Z,18.30
2022-07-30T02:50:27.049Z,18.30
2022-07-30T02:52:56.000Z,18.30
2022-07-30T02:55:26.140Z,18.30
2022-07-30T02:57:57.479Z,18.30
2022-07-30T03:00:27.133Z,18.40
2022-07-30T03:02:57.213Z,18.30
2022-07-30T03:05:26.753Z,18.30
2022-07-30T03:07:57.540Z,18.40
2022-07-30T03:10:27.056Z,18.30
2022-07-30T03:12:58.979Z,18.30
2022-07-30T03:15:28.696Z,18.30
2022-07-30T03:17:59.179Z,18.30
2022-07-30T03:20:29.973Z,18.30
2022-07-30T03:23:00.395Z,18.30
2022-07-30T03:25:29.534Z,18.20
2022-07-30T03:28:01.805Z,18.20
2022-07-30T03:30:30.783Z,18.20
2022-07-30T03:32:59.791Z,18.20
2022-07-30T03:35:31.113Z,18.20
2022-07-30T03:38:01.021Z,18.10
2022-07-30T03:40:30.923Z,18.10
2022-07-30T03:43:00.801Z,18.10
2022-07-30T03:45:29.627Z,18.10
2022-07-30T03:47:59.227Z,18.10
2022-07-30T03:50:28.206Z,18.10
2022-07-30T03:52:56.737Z,18.10
2022-07-30T03:55:25.595Z,18.10
2022-07-30T03:57:53.673Z,18.10
2022-07-30T04:00:23.710Z,18.10
2022-07-30T04:02:51.754Z,18.10
2022-07-30T04:05:19.726Z,18.10
2022-07-30T04:07:47.816Z,18.10
2022-07-30T04:10:16.615Z,18.10
2022-07-30T04:12:44.599Z,18.10
2022-07-30T04:16:36.841Z,18.10
2022-07-30T04:18:05.581Z,18.00
2022-07-30T04:20:40.847Z,18.00
2022-07-30T04:23:10.604Z,18.00
2022-07-30T04:25:39.384Z,18.00
2022-07-30T04:28:07.956Z,17.90
2022-07-30T04:30:35.981Z,17.90
2022-07-30T04:33:06.047Z,17.90
2022-07-30T04:35:51.609Z,17.90
2022-07-30T04:38:21.097Z,17.90
2022-07-30T04:40:49.681Z,17.80
2022-07-30T04:43:17.756Z,17.80
2022-07-30T04:45:46.024Z,17.80
2022-07-30T04:48:15.382Z,17.80
2022-07-30T04:50:46.865Z,17.80
2022-07-30T04:53:15.589Z,17.80
2022-07-30T04:55:46.241Z,17.80
2022-07-30T04:58:16.319Z,17.80
2022-07-30T05:00:45.356Z,17.80
2022-07-30T05:03:17.351Z,17.80
2022-07-30T05:05:46.795Z,17.80
2022-07-30T05:08:15.235Z,17.80
2022-07-30T05:10:44.867Z,17.80
2022-07-30T05:13:14.293Z,17.80
2022-07-30T05:15:44.641Z,17.80
2022-07-30T05:18:13.265Z,17.80
2022-07-30T05:20:42.721Z,17.80
2022-07-30T05:23:10.750Z,17.80
2022-07-30T05:25:38.838Z,17.70
2022-07-30T05:28:06.870Z,17.70
2022-07-30T05:30:34.866Z,17.70
2022-07-30T05:33:03.634Z,17.70
2022-07-30T05:35:36.613Z,17.80
2022-07-30T05:38:06.012Z,17.80
2022-07-30T05:40:34.144Z,17.80
2022-07-30T05:43:02.254Z,17.80
2022-07-30T05:45:30.482Z,17.80
2022-07-30T05:47:58.495Z,17.80
2022-07-30T05:50:26.582Z,17.90
2022-07-30T05:52:56.047Z,17.90
2022-07-30T05:55:25.382Z,17.90
2022-07-30T05:57:53.373Z,17.90
2022-07-30T06:00:21.593Z,18.00
2022-07-30T06:02:49.551Z,18.00
2022-07-30T06:05:17.561Z,18.00
2022-07-30T06:07:45.514Z,18.10
2022-07-30T06:10:13.774Z,18.00
2022-07-30T06:12:43.454Z,18.10
2022-07-30T06:15:11.870Z,18.10
2022-07-30T06:17:44.517Z,18.10
2022-07-30T06:20:25.441Z,18.10
2022-07-30T06:22:53.453Z,18.20
2022-07-30T06:25:21.452Z,18.20
2022-07-30T06:27:50.917Z,18.30
2022-07-30T06:30:19.007Z,18.30
2022-07-30T06:32:48.869Z,18.30
2022-07-30T06:35:17.047Z,18.40
2022-07-30T06:38:00.687Z,18.40
2022-07-30T06:40:33.509Z,18.40
2022-07-30T06:43:04.260Z,18.50
2022-07-30T06:45:32.500Z,18.50
2022-07-30T06:48:00.838Z,18.60
2022-07-30T06:50:29.220Z,18.70
2022-07-30T06:52:57.284Z,18.70
2022-07-30T06:55:25.716Z,18.70
2022-07-30T06:57:53.728Z,18.80
2022-07-30T07:00:23.172Z,18.90
2022-07-30T07:02:51.479Z,18.90
2022-07-30T07:05:20.529Z,19.00
2022-07-30T07:07:58.125Z,19.10
2022-07-30T07:10:27.640Z,19.10
2022-07-30T07:12:55.789Z,19.20
2022-07-30T07:15:36.715Z,19.20
2022-07-30T07:18:06.679Z,19.30
2022-07-30T07:20:35.064Z,19.30
2022-07-30T07:23:08.722Z,19.30
2022-07-30T07:25:38.024Z,19.40
2022-07-30T07:28:11.544Z,19.50
2022-07-30T07:30:43.366Z,19.70
2022-07-30T07:33:12.105Z,19.70
2022-07-30T07:35:48.812Z,19.80
2022-07-30T07:38:18.421Z,19.80
2022-07-30T07:40:46.525Z,19.80
2022-07-30T07:43:15.025Z,19.80
2022-07-30T07:45:45.811Z,19.80
2022-07-30T07:48:14.351Z,19.80
2022-07-30T07:50:42.413Z,19.90
2022-07-30T07:53:10.471Z,19.90
2022-07-30T07:55:38.484Z,20.00
2022-07-30T07:58:06.618Z,20.10
2022-07-30T08:00:34.839Z,20.10
2022-07-30T08:03:04.518Z,20.10
2022-07-30T08:05:56.847Z,20.20
2022-07-30T08:08:20.609Z,20.20
2022-07-30T08:10:48.754Z,20.20
2022-07-30T08:13:48.024Z,20.20
2022-07-30T08:16:04.939Z,20.20
2022-07-30T08:18:40.234Z,20.30
2022-07-30T08:21:08.714Z,20.30
2022-07-30T08:23:42.152Z,20.30
2022-07-30T08:26:10.633Z,20.30
2022-07-30T08:28:38.725Z,20.30
2022-07-30T08:31:06.795Z,20.30
2022-07-30T08:33:35.397Z,20.40
2022-07-30T08:36:09.504Z,20.40
2022-07-30T08:38:39.147Z,20.40
2022-07-30T08:41:07.634Z,20.40
2022-07-30T08:43:37.275Z,20.50
2022-07-30T08:46:09.245Z,20.50
2022-07-30T08:48:37.552Z,20.60
2022-07-30T08:51:07.374Z,20.60
2022-07-30T08:53:36.044Z,20.60
2022-07-30T08:56:05.756Z,20.70
2022-07-30T08:58:35.565Z,20.80
2022-07-30T09:01:04.448Z,20.80
2022-07-30T09:03:32.883Z,20.80
2022-07-30T09:06:02.463Z,20.80
2022-07-30T09:08:32.634Z,20.80
2022-07-30T09:11:01.170Z,20.90
2022-07-30T09:13:30.570Z,20.90
2022-07-30T09:15:59.180Z,20.90
2022-07-30T09:18:31.957Z,21.00
2022-07-30T09:21:01.729Z,21.00
2022-07-30T09:23:31.400Z,21.10
2022-07-30T09:26:00.871Z,21.10
2022-07-30T09:28:31.298Z,21.10
2022-07-30T09:31:00.037Z,21.20
2022-07-30T09:33:37.006Z,21.20
2022-07-30T09:36:07.093Z,21.20
2022-07-30T09:38:49.279Z,21.20
2022-07-30T09:41:37.697Z,21.30
2022-07-30T09:44:07.263Z,21.30
2022-07-30T09:46:47.608Z,21.30
2022-07-30T09:49:17.429Z,21.30
2022-07-30T09:51:56.642Z,21.30
2022-07-30T09:54:26.983Z,21.40
2022-07-30T09:57:25.555Z,21.40
2022-07-30T09:59:56.920Z,21.50
2022-07-30T10:02:32.186Z,21.50
2022-07-30T10:05:13.876Z,21.60
2022-07-30T10:07:52.128Z,21.60
2022-07-30T10:10:25.500Z,21.70
2022-07-30T10:12:59.361Z,21.80
2022-07-30T10:15:32.476Z,21.80
2022-07-30T10:18:01.676Z,21.90
2022-07-30T10:20:30.059Z,21.90
2022-07-30T10:23:07.808Z,22.00
2022-07-30T10:25:49.032Z,22.00
2022-07-30T10:28:24.141Z,22.00
2022-07-30T10:30:53.344Z,22.10
2022-07-30T10:33:35.046Z,22.20
2022-07-30T10:36:08.891Z,22.20
2022-07-30T10:38:42.926Z,22.30
2022-07-30T10:41:43.251Z,22.40
2022-07-30T10:44:44.908Z,22.40
2022-07-30T10:47:18.522Z,22.50
2022-07-30T10:50:10.500Z,22.60
2022-07-30T10:52:45.475Z,22.60
2022-07-30T10:55:15.753Z,22.70
2022-07-30T10:58:02.072Z,22.70
2022-07-30T11:00:31.460Z,22.80
2022-07-30T11:03:19.169Z,22.80
2022-07-30T11:05:49.335Z,23.00
2022-07-30T11:08:32.121Z,23.00
2022-07-30T11:11:19.531Z,23.10
2022-07-30T11:13:58.284Z,23.20
2022-07-30T11:16:59.506Z,23.30
2022-07-30T11:19:56.707Z,23.40
2022-07-30T11:22:29.775Z,23.40
2022-07-30T11:24:58.156Z,23.60
2022-07-30T11:27:41.511Z,23.70
2022-07-30T11:30:36.103Z,23.80
2022-07-30T11:33:33.161Z,23.80
2022-07-30T11:36:12.586Z,23.90
2022-07-30T11:39:05.177Z,24.00
2022-07-30T11:41:35.451Z,24.00
2022-07-30T11:44:30.060Z,24.10
2022-07-30T11:47:00.375Z,24.20
2022-07-30T11:49:36.765Z,24.20
2022-07-30T11:52:05.371Z,24.30
2022-07-30T11:54:33.489Z,24.30
2022-07-30T11:57:04.610Z,24.40
2022-07-30T11:59:32.964Z,24.50
2022-07-30T12:02:02.734Z,24.50
2022-07-30T12:04:31.405Z,24.60
2022-07-30T12:06:59.790Z,24.70
2022-07-30T12:09:29.523Z,24.70
2022-07-30T12:11:58.251Z,24.80
2022-07-30T12:14:26.407Z,24.90
2022-07-30T12:16:55.505Z,24.90
2022-07-30T12:19:24.965Z,25.00
2022-07-30T12:21:53.839Z,25.10
2022-07-30T12:24:26.314Z,25.10
2022-07-30T12:27:05.092Z,25.20
2022-07-30T12:29:34.213Z,25.20
2022-07-30T12:32:02.434Z,25.30
2022-07-30T12:34:31.843Z,25.40
2022-07-30T12:37:10.115Z,25.40
2022-07-30T12:39:38.555Z,25.40
2022-07-30T12:42:09.945Z,25.40
2022-07-30T12:44:40.416Z,25.40
2022-07-30T12:47:20.762Z,25.40
2022-07-30T12:49:53.224Z,25.40
2022-07-30T12:52:27.852Z,25.50
2022-07-30T12:55:01.835Z,25.50
2022-07-30T12:57:30.318Z,25.60
2022-07-30T13:00:07.294Z,25.60
2022-07-30T13:02:36.306Z,25.70
2022-07-30T13:05:11.543Z,25.70
2022-07-30T13:07:54.816Z,25.70
2022-07-30T13:10:27.192Z,25.80
2022-07-30T13:12:58.419Z,25.90
2022-07-30T13:15:26.789Z,25.90
2022-07-30T13:17:54.904Z,26.00
2022-07-30T13:20:24.570Z,26.10
2022-07-30T13:22:52.652Z,26.20
2022-07-30T13:25:20.689Z,26.20
2022-07-30T13:27:48.959Z,26.20
2022-07-30T13:30:17.078Z,26.30
2022-07-30T13:32:45.127Z,26.30
2022-07-30T13:35:13.190Z,26.40
2022-07-30T13:37:42.573Z,26.40
2022-07-30T13:40:11.728Z,26.30
2022-07-30T13:42:39.986Z,26.40
2022-07-30T13:45:09.103Z,26.40
2022-07-30T13:47:37.163Z,26.50
2022-07-30T13:50:05.958Z,26.50
2022-07-30T13:52:34.017Z,26.50
2022-07-30T13:55:03.450Z,26.50
2022-07-30T13:57:31.509Z,26.40
2022-07-30T13:59:59.477Z,26.40
2022-07-30T14:02:27.952Z,26.40
2022-07-30T14:04:56.341Z,26.50
2022-07-30T14:07:24.920Z,26.50
2022-07-30T14:09:54.683Z,26.50
2022-07-30T14:12:24.374Z,26.60
2022-07-30T14:14:52.441Z,26.70
2022-07-30T14:17:20.610Z,26.70
2022-07-30T14:19:50.280Z,26.80
2022-07-30T14:22:18.486Z,26.90
2022-07-30T14:24:46.551Z,27.00
2022-07-30T14:27:14.902Z,27.10
2022-07-30T14:29:44.280Z,27.10
2022-07-30T14:32:12.343Z,27.20
2022-07-30T14:34:40.537Z,27.30
2022-07-30T14:37:09.825Z,27.40
2022-07-30T14:39:42.859Z,27.50
2022-07-30T14:42:11.180Z,27.60
2022-07-30T14:44:39.864Z,27.60
2022-07-30T14:47:09.990Z,27.60
2022-07-30T14:49:38.049Z,27.70
2022-07-30T14:52:06.366Z,27.70
2022-07-30T14:54:34.715Z,27.80
2022-07-30T14:57:03.083Z,27.80
2022-07-30T14:59:31.453Z,27.70
2022-07-30T15:02:00.091Z,27.80
2022-07-30T15:04:29.963Z,27.70
2022-07-30T15:06:58.057Z,27.70
2022-07-30T15:09:26.358Z,27.70
2022-07-30T15:12:09.371Z,27.70
2022-07-30T15:14:39.901Z,27.70
2022-07-30T15:17:08.328Z,27.80
2022-07-30T15:19:37.749Z,27.80
2022-07-30T15:22:18.917Z,27.80
2022-07-30T15:24:46.897Z,27.70
2022-07-30T15:27:14.905Z,27.60
2022-07-30T15:29:43.019Z,27.60
2022-07-30T15:32:11.424Z,27.50
2022-07-30T15:34:41.228Z,27.50
2022-07-30T15:37:09.672Z,27.50
2022-07-30T15:39:37.857Z,27.50
2022-07-30T15:42:08.102Z,27.40
2022-07-30T15:44:42.247Z,27.50
2022-07-30T15:47:16.085Z,27.40
2022-07-30T15:49:45.725Z,27.40
2022-07-30T15:52:13.821Z,27.40
2022-07-30T15:54:42.196Z,27.30
2022-07-30T15:57:10.290Z,27.30
2022-07-30T15:59:38.430Z,27.30
2022-07-30T16:02:06.787Z,27.30
2022-07-30T16:04:38.019Z,27.30
2022-07-30T16:07:07.953Z,27.40
2022-07-30T16:09:36.096Z,27.50
2022-07-30T16:12:04.922Z,27.50
2022-07-30T16:14:33.327Z,27.60
2022-07-30T16:17:01.435Z,27.60
2022-07-30T16:19:29.585Z,27.60
2022-07-30T16:21:57.768Z,27.50
2022-07-30T16:24:27.569Z,27.50
2022-07-30T16:26:55.760Z,27.50
2022-07-30T16:29:23.746Z,27.60
2022-07-30T16:31:51.789Z,27.50
2022-07-30T16:34:26.324Z,27.50
2022-07-30T16:36:55.203Z,27.50
2022-07-30T16:39:23.838Z,27.50
2022-07-30T16:41:53.263Z,27.40
2022-07-30T16:44:21.821Z,27.40
2022-07-30T16:46:50.048Z,27.30
2022-07-30T16:49:18.311Z,27.30
2022-07-30T16:51:46.503Z,27.20
2022-07-30T16:54:14.965Z,27.10
2022-07-30T16:56:43.043Z,27.10
2022-07-30T16:59:14.366Z,27.10
2022-07-30T17:01:42.458Z,27.00
2022-07-30T17:04:10.469Z,27.00
2022-07-30T17:06:39.999Z,26.90
2022-07-30T17:09:08.155Z,26.90
2022-07-30T17:11:47.402Z,26.80
2022-07-30T17:14:22.515Z,26.80
2022-07-30T17:16:50.649Z,26.70
2022-07-30T17:19:18.869Z,26.70
2022-07-30T17:21:46.934Z,26.60
2022-07-30T17:24:16.527Z,26.60
2022-07-30T17:26:45.230Z,26.60
2022-07-30T17:29:15.342Z,26.50
2022-07-30T17:31:46.594Z,26.50
2022-07-30T17:34:18.280Z,26.40
2022-07-30T17:36:47.062Z,26.30
2022-07-30T17:40:28.175Z,26.30
2022-07-30T17:42:10.394Z,26.30
2022-07-30T17:44:39.352Z,26.20
2022-07-30T17:47:14.617Z,26.20
2022-07-30T17:49:44.509Z,26.00
2022-07-30T17:52:12.756Z,26.00
2022-07-30T17:54:40.911Z,25.90
2022-07-30T17:57:10.540Z,25.90
2022-07-30T17:59:38.627Z,25.90
2022-07-30T18:02:08.146Z,25.80
2022-07-30T18:04:36.576Z,25.80
2022-07-30T18:07:05.124Z,25.80
2022-07-30T18:09:40.114Z,25.70
2022-07-30T18:12:09.145Z,25.70
2022-07-30T18:14:37.368Z,25.60
2022-07-30T18:17:09.995Z,25.60
2022-07-30T18:19:42.439Z,25.50
2022-07-30T18:22:10.555Z,25.50
2022-07-30T18:24:43.729Z,25.50
2022-07-30T18:27:12.833Z,25.40
2022-07-30T18:29:41.060Z,25.40
2022-07-30T18:32:09.786Z,25.30
2022-07-30T18:34:37.803Z,25.30
2022-07-30T18:37:07.247Z,25.20
2022-07-30T18:39:35.393Z,25.20
2022-07-30T18:42:04.803Z,25.20
2022-07-30T18:44:33.194Z,25.20
2022-07-30T18:47:01.325Z,25.10
2022-07-30T18:49:37.945Z,25.10
2022-07-30T18:52:08.482Z,25.00
2022-07-30T18:54:37.201Z,25.00
2022-07-30T18:57:05.903Z,24.90
2022-07-30T18:59:34.079Z,24.90
2022-07-30T19:02:04.643Z,24.90
2022-07-30T19:04:33.133Z,24.90
2022-07-30T19:07:01.231Z,24.80
2022-07-30T19:09:30.633Z,24.80
2022-07-30T19:11:58.629Z,24.80
2022-07-30T19:14:26.803Z,24.70
2022-07-30T19:16:54.842Z,24.70
2022-07-30T19:19:27.798Z,24.70
2022-07-30T19:21:55.929Z,24.70
2022-07-30T19:24:24.022Z,24.70
2022-07-30T19:26:57.434Z,24.60
2022-07-30T19:29:25.524Z,24.60
2022-07-30T19:31:53.515Z,24.60
2022-07-30T19:34:21.575Z,24.50
2022-07-30T19:36:49.622Z,24.50
2022-07-30T19:39:21.830Z,24.50
2022-07-30T19:41:51.048Z,24.50
2022-07-30T19:44:20.759Z,24.50
2022-07-30T19:46:51.435Z,24.50
2022-07-30T19:49:21.817Z,24.40
2022-07-30T19:52:07.316Z,24.40
2022-07-30T19:54:38.229Z,24.30
2022-07-30T19:57:06.484Z,24.30
2022-07-30T19:59:45.742Z,24.30
2022-07-30T20:02:24.215Z,24.30
2022-07-30T20:04:55.909Z,24.20
2022-07-30T20:07:27.605Z,24.20
2022-07-30T20:09:55.863Z,24.20
2022-07-30T20:12:24.244Z,24.20
2022-07-30T20:14:53.813Z,24.20
2022-07-30T20:17:23.834Z,24.20
2022-07-30T20:19:58.077Z,24.20
2022-07-30T20:22:27.889Z,24.10
2022-07-30T20:24:56.204Z,24.10
2022-07-30T20:27:35.694Z,24.10
2022-07-30T20:30:07.686Z,24.10
2022-07-30T20:32:35.928Z,24.00
2022-07-30T20:35:04.983Z,24.00
2022-07-30T20:37:33.377Z,23.90
2022-07-30T20:40:21.565Z,24.00
2022-07-30T20:42:51.227Z,23.90
2022-07-30T20:45:24.409Z,23.80
2022-07-30T20:50:45.941Z,23.80
2022-07-30T20:53:14.632Z,23.80
2022-07-30T20:55:43.319Z,23.80
2022-07-30T20:58:17.298Z,23.70
2022-07-30T21:00:49.759Z,23.70
2022-07-30T21:03:21.548Z,23.70
2022-07-30T21:05:52.352Z,23.70
2022-07-30T21:08:21.296Z,23.60
2022-07-30T21:10:55.155Z,23.60
2022-07-30T21:13:24.989Z,23.60
2022-07-30T21:16:02.920Z,23.60
2022-07-30T21:18:32.679Z,23.60
2022-07-30T21:21:01.208Z,23.60
2022-07-30T21:23:33.072Z,23.50
2022-07-30T21:26:05.979Z,23.50
2022-07-30T21:28:38.799Z,23.50
2022-07-30T21:31:10.413Z,23.50
2022-07-30T21:33:39.357Z,23.40
2022-07-30T21:36:10.168Z,23.40
2022-07-30T21:38:41.952Z,23.40
2022-07-30T21:44:00.611Z,23.40
2022-07-30T21:46:32.349Z,23.30
2022-07-30T21:49:00.596Z,23.30
2022-07-30T21:51:29.185Z,23.30
2022-07-30T21:54:00.062Z,23.20
2022-07-30T21:56:28.944Z,23.20
2022-07-30T21:58:56.997Z,23.30
2022-07-30T22:01:25.116Z,23.20
2022-07-30T22:04:03.063Z,23.20
2022-07-30T22:06:38.139Z,23.20
2022-07-30T22:09:18.288Z,23.20
2022-07-30T22:11:54.864Z,23.20
2022-07-30T22:14:25.610Z,23.10
2022-07-30T22:16:53.896Z,23.10
2022-07-30T22:19:25.979Z,23.10
2022-07-30T22:21:54.412Z,23.10
2022-07-30T22:24:29.069Z,23.10
2022-07-30T22:27:01.653Z,23.10
2022-07-30T22:29:38.199Z,23.10
2022-07-30T22:32:07.827Z,23.10
2022-07-30T22:34:37.436Z,23.10
2022-07-30T22:37:09.277Z,23.10
2022-07-30T22:39:50.637Z,23.10
2022-07-30T22:42:24.592Z,23.00
2022-07-30T22:47:53.989Z,23.00
2022-07-30T22:50:26.203Z,23.00
2022-07-30T22:52:59.792Z,23.00
2022-07-30T22:55:42.624Z,23.00
2022-07-30T22:58:12.293Z,22.90
2022-07-30T23:00:40.274Z,22.90
2022-07-30T23:03:08.652Z,22.90
2022-07-30T23:05:39.255Z,22.90
2022-07-30T23:08:08.115Z,22.90
2022-07-30T23:10:36.781Z,22.90
2022-07-30T23:12:19.101Z,23.80
2022-07-30T23:12:27.581Z,23.40
2022-07-30T23:12:34.690Z,23.00
2022-07-30T23:13:05.146Z,22.90
2022-07-30T23:15:33.431Z,22.90
2022-07-30T23:18:01.747Z,22.80
2022-07-30T23:20:29.747Z,22.90
2022-07-30T23:23:01.468Z,22.80
2022-07-30T23:25:38.639Z,22.90
2022-07-30T23:28:07.158Z,22.80
2022-07-30T23:30:35.500Z,22.80
2022-07-30T23:33:03.659Z,22.80
2022-07-30T23:35:31.686Z,22.80
2022-07-30T23:38:01.118Z,22.80
2022-07-30T23:40:29.380Z,22.70
2022-07-30T23:42:57.672Z,22.80
2022-07-30T23:45:25.730Z,22.80
2022-07-30T23:48:02.464Z,22.70
2022-07-30T23:50:33.257Z,22.70
2022-07-30T23:53:04.378Z,22.70
2022-07-30T23:55:33.223Z,22.70
2022-07-30T23:58:01.226Z,22.70
